createdAt,value
2018-09-13T00:00:10.573Z,20.48
2018-09-13T00:01:10.731Z,20.46
2018-09-13T00:02:10.883Z,20.37
2018-09-13T00:03:11.026Z,20.48
2018-09-13T00:04:11.159Z,20.39
2018-09-13T00:05:11.330Z,20.37
2018-09-13T00:06:11.464Z,20.50
2018-09-13T00:07:11.599Z,20.39
2018-09-13T00:08:11.765Z,20.37
2018-09-13T00:09:11.904Z,20.36
2018-09-13T00:10:12.048Z,20.41
2018-09-13T00:11:12.208Z,20.37
2018-09-13T00:12:12.345Z,20.30
2018-09-13T00:13:12.487Z,20.34
2018-09-13T00:14:12.635Z,20.34
2018-09-13T00:15:12.771Z,20.33
2018-09-13T00:16:12.914Z,20.32
2018-09-13T00:17:13.056Z,20.44
2018-09-13T00:18:13.192Z,20.41
2018-09-13T00:19:13.334Z,20.29
2018-09-13T00:20:13.465Z,20.30
2018-09-13T00:21:13.606Z,20.32
2018-09-13T00:22:13.744Z,20.29
2018-09-13T00:23:13.885Z,20.36
2018-09-13T00:24:14.030Z,20.34
2018-09-13T00:25:14.168Z,20.37
2018-09-13T00:26:14.325Z,20.32
2018-09-13T00:27:14.486Z,20.18
2018-09-13T00:28:14.623Z,20.22
2018-09-13T00:29:14.859Z,20.17
2018-09-13T00:30:14.872Z,20.18
2018-09-13T00:31:15.016Z,20.18
2018-09-13T00:32:15.155Z,20.23
2018-09-13T00:33:15.294Z,20.14
2018-09-13T00:34:15.429Z,20.17
2018-09-13T00:35:15.571Z,20.17
2018-09-13T00:36:15.728Z,20.14
2018-09-13T00:37:15.864Z,20.14
2018-09-13T00:38:16.007Z,20.17
2018-09-13T00:39:16.149Z,20.22
2018-09-13T00:40:16.294Z,20.11
2018-09-13T00:41:16.434Z,20.19
2018-09-13T00:42:16.570Z,20.17
2018-09-13T00:43:16.724Z,20.25
2018-09-13T00:44:16.863Z,20.17
2018-09-13T00:45:17.001Z,20.05
2018-09-13T00:46:17.139Z,20.14
2018-09-13T00:47:17.331Z,20.08
2018-09-13T00:48:17.434Z,20.02
2018-09-13T00:49:17.574Z,20.14
2018-09-13T00:50:17.713Z,20.07
2018-09-13T00:51:17.861Z,20.02
2018-09-13T00:52:17.998Z,20.17
2018-09-13T00:53:18.138Z,20.08
2018-09-13T00:54:18.275Z,20.11
2018-09-13T00:55:18.468Z,20.04
2018-09-13T00:56:18.581Z,20.04
2018-09-13T00:57:18.721Z,20.08
2018-09-13T00:58:18.861Z,20.09
2018-09-13T00:59:19.021Z,20.11
2018-09-13T01:00:19.157Z,20.12
2018-09-13T01:01:19.295Z,20.08
2018-09-13T01:02:19.456Z,20.02
2018-09-13T01:03:19.591Z,20.12
2018-09-13T01:04:19.728Z,20.07
2018-09-13T01:05:19.870Z,19.97
2018-09-13T01:06:19.998Z,20.04
2018-09-13T01:07:20.143Z,20.04
2018-09-13T01:08:20.271Z,19.96
2018-09-13T01:09:20.410Z,20.05
2018-09-13T01:10:20.576Z,20.08
2018-09-13T01:11:20.709Z,20.00
2018-09-13T01:12:20.847Z,20.00
2018-09-13T01:13:20.998Z,19.92
2018-09-13T01:14:21.129Z,19.96
2018-09-13T01:15:21.271Z,19.96
2018-09-13T01:16:21.417Z,19.94
2018-09-13T01:17:21.577Z,19.93
2018-09-13T01:18:21.705Z,19.92
2018-09-13T01:19:22.712Z,19.92
2018-09-13T01:20:22.005Z,19.87
2018-09-13T01:21:22.135Z,19.92
2018-09-13T01:22:22.315Z,19.86
2018-09-13T01:23:22.458Z,19.81
2018-09-13T01:24:22.595Z,19.87
2018-09-13T01:25:23.201Z,19.90
2018-09-13T01:26:22.862Z,19.96
2018-09-13T01:27:23.002Z,20.04
2018-09-13T01:28:23.149Z,19.99
2018-09-13T01:29:23.283Z,19.99
2018-09-13T01:30:23.427Z,19.96
2018-09-13T01:31:23.564Z,20.04
2018-09-13T01:32:23.706Z,19.87
2018-09-13T01:33:23.855Z,19.89
2018-09-13T01:34:23.994Z,19.92
2018-09-13T01:35:24.154Z,19.90
2018-09-13T01:36:24.295Z,19.97
2018-09-13T01:37:25.201Z,19.93
2018-09-13T01:38:24.613Z,19.93
2018-09-13T01:39:24.748Z,19.93
2018-09-13T01:40:24.896Z,19.89
2018-09-13T01:41:25.036Z,20.04
2018-09-13T01:42:25.179Z,19.94
2018-09-13T01:43:25.321Z,19.99
2018-09-13T01:44:25.455Z,20.00
2018-09-13T01:45:25.615Z,19.93
2018-09-13T01:46:25.755Z,19.89
2018-09-13T01:47:25.891Z,19.90
2018-09-13T01:48:26.038Z,19.86
2018-09-13T01:49:26.210Z,19.94
2018-09-13T01:50:26.350Z,19.97
2018-09-13T01:51:26.493Z,20.04
2018-09-13T01:52:26.631Z,19.97
2018-09-13T01:53:26.775Z,20.04
2018-09-13T01:54:26.913Z,19.97
2018-09-13T01:55:27.049Z,19.96
2018-09-13T01:56:27.197Z,19.94
2018-09-13T01:57:27.330Z,19.94
2018-09-13T01:58:27.471Z,19.97
2018-09-13T01:59:27.635Z,19.89
2018-09-13T02:00:27.775Z,19.89
2018-09-13T02:01:27.927Z,19.84
2018-09-13T02:02:28.067Z,19.96
2018-09-13T02:03:28.228Z,19.90
2018-09-13T02:04:28.361Z,20.00
2018-09-13T02:05:28.501Z,19.86
2018-09-13T02:06:28.636Z,19.92
2018-09-13T02:07:28.788Z,19.97
2018-09-13T02:08:28.922Z,19.93
2018-09-13T02:09:29.062Z,19.92
2018-09-13T02:10:29.198Z,19.86
2018-09-13T02:11:29.351Z,19.84
2018-09-13T02:12:29.484Z,19.87
2018-09-13T02:13:29.624Z,19.90
2018-09-13T02:14:29.757Z,19.93
2018-09-13T02:15:29.891Z,19.93
2018-09-13T02:16:30.041Z,19.96
2018-09-13T02:17:30.177Z,19.86
2018-09-13T02:18:30.311Z,19.92
2018-09-13T02:19:30.444Z,20.02
2018-09-13T02:20:30.585Z,19.94
2018-09-13T02:21:30.747Z,19.97
2018-09-13T02:22:30.858Z,19.87
2018-09-13T02:23:31.000Z,19.89
2018-09-13T02:24:31.139Z,19.96
2018-09-13T02:25:31.272Z,19.99
2018-09-13T02:26:31.407Z,20.02
2018-09-13T02:27:31.549Z,19.92
2018-09-13T02:28:31.681Z,19.92
2018-09-13T02:29:31.835Z,19.96
2018-09-13T02:30:31.969Z,19.94
2018-09-13T02:31:32.111Z,19.90
2018-09-13T02:32:32.244Z,19.94
2018-09-13T02:33:32.388Z,19.87
2018-09-13T02:34:32.527Z,19.99
2018-09-13T02:35:33.225Z,19.90
2018-09-13T02:38:04.615Z,19.89
2018-09-13T02:39:04.759Z,19.84
2018-09-13T02:40:04.888Z,19.87
2018-09-13T02:41:05.042Z,19.94
2018-09-13T02:42:05.179Z,19.90
2018-09-13T02:43:05.359Z,19.89
2018-09-13T02:44:05.467Z,19.87
2018-09-13T02:45:05.595Z,19.90
2018-09-13T02:46:05.746Z,19.99
2018-09-13T02:47:05.888Z,19.96
2018-09-13T02:48:06.024Z,19.87
2018-09-13T02:49:06.218Z,20.00
2018-09-13T02:50:06.369Z,19.84
2018-09-13T02:51:06.383Z,19.99
2018-09-13T02:52:06.518Z,19.86
2018-09-13T02:53:06.663Z,20.04
2018-09-13T02:54:06.796Z,20.05
2018-09-13T02:55:06.936Z,19.92
2018-09-13T02:56:07.071Z,20.00
2018-09-13T02:57:07.217Z,19.93
2018-09-13T02:58:07.355Z,19.94
2018-09-13T02:59:07.497Z,19.97
2018-09-13T03:00:07.633Z,20.02
2018-09-13T03:01:07.779Z,19.99
2018-09-13T03:02:07.913Z,19.97
2018-09-13T03:03:08.049Z,19.94
2018-09-13T03:04:08.193Z,20.00
2018-09-13T03:05:08.382Z,19.99
2018-09-13T03:06:08.498Z,20.02
2018-09-13T03:07:08.632Z,20.00
2018-09-13T03:08:08.808Z,20.02
2018-09-13T03:09:08.923Z,19.97
2018-09-13T03:10:09.055Z,20.00
2018-09-13T03:11:09.196Z,20.00
2018-09-13T03:12:09.335Z,19.93
2018-09-13T03:13:09.488Z,19.90
2018-09-13T03:14:09.620Z,19.99
2018-09-13T03:15:09.762Z,19.94
2018-09-13T03:16:09.887Z,19.92
2018-09-13T03:17:10.044Z,20.02
2018-09-13T03:18:10.181Z,19.94
2018-09-13T03:19:10.325Z,19.86
2018-09-13T03:20:10.465Z,19.94
2018-09-13T03:21:10.624Z,19.93
2018-09-13T03:22:10.760Z,19.97
2018-09-13T03:23:10.900Z,19.96
2018-09-13T03:24:11.061Z,20.02
2018-09-13T03:25:11.216Z,19.89
2018-09-13T03:26:11.346Z,19.94
2018-09-13T03:27:11.493Z,19.99
2018-09-13T03:28:11.629Z,19.94
2018-09-13T03:29:11.785Z,19.90
2018-09-13T03:30:11.922Z,19.90
2018-09-13T03:31:12.064Z,19.89
2018-09-13T03:32:12.201Z,19.96
2018-09-13T03:33:12.369Z,19.92
2018-09-13T03:34:12.537Z,19.99
2018-09-13T03:35:12.684Z,19.86
2018-09-13T03:36:12.821Z,19.92
2018-09-13T03:37:12.978Z,20.00
2018-09-13T03:38:13.111Z,19.93
2018-09-13T03:39:13.260Z,19.86
2018-09-13T03:40:13.400Z,19.87
2018-09-13T03:41:13.543Z,19.92
2018-09-13T03:42:13.690Z,19.99
2018-09-13T03:43:13.835Z,20.00
2018-09-13T03:44:13.973Z,20.00
2018-09-13T03:45:14.813Z,19.96
2018-09-13T03:46:14.292Z,19.97
2018-09-13T03:47:14.313Z,19.96
2018-09-13T03:48:14.460Z,19.86
2018-09-13T03:49:14.599Z,19.93
2018-09-13T03:50:14.737Z,19.84
2018-09-13T03:51:14.876Z,19.93
2018-09-13T03:52:15.018Z,19.99
2018-09-13T03:53:15.165Z,19.86
2018-09-13T03:54:15.307Z,19.84
2018-09-13T03:55:15.451Z,19.84
2018-09-13T03:56:15.591Z,19.84
2018-09-13T03:57:15.725Z,20.00
2018-09-13T03:58:15.862Z,19.87
2018-09-13T03:59:16.006Z,19.86
2018-09-13T04:00:16.140Z,19.89
2018-09-13T04:01:16.275Z,19.89
2018-09-13T04:02:16.421Z,19.92
2018-09-13T04:03:16.612Z,19.96
2018-09-13T04:04:16.698Z,19.89
2018-09-13T04:05:16.829Z,19.87
2018-09-13T04:06:16.967Z,19.96
2018-09-13T04:07:17.109Z,19.86
2018-09-13T04:08:17.250Z,19.93
2018-09-13T04:09:17.449Z,20.00
2018-09-13T04:10:17.531Z,19.90
2018-09-13T04:11:17.667Z,19.84
2018-09-13T04:12:17.841Z,19.81
2018-09-13T04:13:17.972Z,19.90
2018-09-13T04:14:18.114Z,19.70
2018-09-13T04:15:18.819Z,19.63
2018-09-13T04:16:18.394Z,19.57
2018-09-13T04:17:18.537Z,19.70
2018-09-13T04:18:18.728Z,19.77
2018-09-13T04:19:18.832Z,19.84
2018-09-13T04:20:18.978Z,19.75
2018-09-13T04:21:19.115Z,19.79
2018-09-13T04:22:19.269Z,19.72
2018-09-13T04:23:19.408Z,19.75
2018-09-13T04:24:19.541Z,19.70
2018-09-13T04:25:19.679Z,19.57
2018-09-13T04:26:19.838Z,19.68
2018-09-13T04:27:20.184Z,19.56
2018-09-13T04:28:20.162Z,19.52
2018-09-13T04:29:20.301Z,19.57
2018-09-13T04:30:20.460Z,19.42
2018-09-13T04:31:20.595Z,19.31
2018-09-13T04:32:20.737Z,19.38
2018-09-13T04:33:20.897Z,19.42
2018-09-13T04:34:21.028Z,19.39
2018-09-13T04:35:21.167Z,19.37
2018-09-13T04:36:21.303Z,19.53
2018-09-13T04:37:21.455Z,19.57
2018-09-13T04:38:21.582Z,19.57
2018-09-13T04:39:21.723Z,19.57
2018-09-13T04:40:21.862Z,19.42
2018-09-13T04:41:22.006Z,19.37
2018-09-13T04:42:22.143Z,19.38
2018-09-13T04:43:22.278Z,19.35
2018-09-13T04:44:22.413Z,19.37
2018-09-13T04:45:23.365Z,19.42
2018-09-13T04:46:22.680Z,19.44
2018-09-13T04:47:22.792Z,19.56
2018-09-13T04:48:22.936Z,19.47
2018-09-13T04:49:23.077Z,19.44
2018-09-13T04:50:23.221Z,19.63
2018-09-13T04:51:23.356Z,19.56
2018-09-13T04:52:23.494Z,19.50
2018-09-13T04:53:23.636Z,19.68
2018-09-13T04:54:23.768Z,19.62
2018-09-13T04:55:23.914Z,19.39
2018-09-13T04:56:24.055Z,19.44
2018-09-13T04:57:24.199Z,19.45
2018-09-13T04:58:24.338Z,19.49
2018-09-13T04:59:24.481Z,19.42
2018-09-13T05:00:24.642Z,19.47
2018-09-13T05:01:24.747Z,19.44
2018-09-13T05:02:24.888Z,19.45
2018-09-13T05:03:25.023Z,19.49
2018-09-13T05:04:25.164Z,19.45
2018-09-13T05:05:25.302Z,19.49
2018-09-13T05:06:25.498Z,19.50
2018-09-13T05:07:25.586Z,19.52
2018-09-13T05:08:25.727Z,19.54
2018-09-13T05:09:25.871Z,19.49
2018-09-13T05:10:26.045Z,19.56
2018-09-13T05:11:26.263Z,19.57
2018-09-13T05:12:26.278Z,19.63
2018-09-13T05:13:26.420Z,19.54
2018-09-13T05:14:26.624Z,19.56
2018-09-13T05:15:26.637Z,19.57
2018-09-13T05:16:26.778Z,19.39
2018-09-13T05:17:27.395Z,19.50
2018-09-13T05:18:27.067Z,19.54
2018-09-13T05:19:27.240Z,19.53
2018-09-13T05:20:27.893Z,19.53
2018-09-13T05:21:27.573Z,19.60
2018-09-13T05:22:27.707Z,19.49
2018-09-13T05:23:27.849Z,19.56
2018-09-13T05:24:28.096Z,19.56
2018-09-13T05:25:28.179Z,19.67
2018-09-13T05:26:28.351Z,19.54
2018-09-13T05:27:28.496Z,19.68
2018-09-13T05:28:28.633Z,19.64
2018-09-13T05:29:28.852Z,19.53
2018-09-13T05:30:28.865Z,19.59
2018-09-13T05:31:29.052Z,19.50
2018-09-13T05:32:29.145Z,19.47
2018-09-13T05:33:29.306Z,19.53
2018-09-13T05:34:29.443Z,19.52
2018-09-13T05:35:29.583Z,19.53
2018-09-13T05:36:29.728Z,19.42
2018-09-13T05:37:29.875Z,19.45
2018-09-13T05:38:30.009Z,19.42
2018-09-13T05:39:30.153Z,19.39
2018-09-13T05:40:30.299Z,19.38
2018-09-13T05:41:30.468Z,19.44
2018-09-13T05:42:30.613Z,19.50
2018-09-13T05:43:30.750Z,19.52
2018-09-13T05:44:30.897Z,19.52
2018-09-13T05:45:31.033Z,19.54
2018-09-13T05:46:31.177Z,19.52
2018-09-13T05:47:31.308Z,19.54
2018-09-13T05:48:31.450Z,19.54
2018-09-13T05:49:31.592Z,19.62
2018-09-13T05:50:31.725Z,19.50
2018-09-13T05:51:31.872Z,19.56
2018-09-13T05:52:32.010Z,19.57
2018-09-13T05:53:32.146Z,19.60
2018-09-13T05:54:32.284Z,19.59
2018-09-13T05:55:32.425Z,19.67
2018-09-13T05:56:32.573Z,19.71
2018-09-13T05:57:32.721Z,19.72
2018-09-13T05:58:32.862Z,19.63
2018-09-13T05:59:33.002Z,19.63
2018-09-13T06:00:33.142Z,19.68
2018-09-13T06:01:33.281Z,19.67
2018-09-13T06:02:33.425Z,19.67
2018-09-13T06:03:33.576Z,19.71
2018-09-13T06:04:33.724Z,19.63
2018-09-13T06:05:33.865Z,19.68
2018-09-13T06:06:34.009Z,19.70
2018-09-13T06:07:34.152Z,19.71
2018-09-13T06:08:34.299Z,19.64
2018-09-13T06:09:34.439Z,19.72
2018-09-13T06:10:34.580Z,19.68
2018-09-13T06:11:34.714Z,19.68
2018-09-13T06:12:34.854Z,19.70
2018-09-13T06:13:35.055Z,19.72
2018-09-13T06:14:35.134Z,19.62
2018-09-13T06:15:35.273Z,19.67
2018-09-13T06:16:35.416Z,19.62
2018-09-13T06:17:35.558Z,19.72
2018-09-13T06:18:35.710Z,19.74
2018-09-13T06:19:35.862Z,19.59
2018-09-13T06:20:36.009Z,19.53
2018-09-13T06:21:36.148Z,19.74
2018-09-13T06:22:36.300Z,19.67
2018-09-13T06:23:36.447Z,19.71
2018-09-13T06:24:36.582Z,19.67
2018-09-13T06:25:36.722Z,19.70
2018-09-13T06:26:36.862Z,19.75
2018-09-13T06:27:37.007Z,19.78
2018-09-13T06:28:37.143Z,19.78
2018-09-13T06:29:37.364Z,19.71
2018-09-13T06:30:37.459Z,19.77
2018-09-13T06:31:37.599Z,19.87
2018-09-13T06:32:37.741Z,19.90
2018-09-13T06:33:37.888Z,19.84
2018-09-13T06:34:38.030Z,19.90
2018-09-13T06:35:38.172Z,19.87
2018-09-13T06:36:38.313Z,19.86
2018-09-13T06:37:38.566Z,19.90
2018-09-13T06:38:38.557Z,19.94
2018-09-13T06:39:38.692Z,19.90
2018-09-13T06:40:38.877Z,19.86
2018-09-13T06:41:39.047Z,19.87
2018-09-13T06:42:39.181Z,19.86
2018-09-13T06:43:39.323Z,19.86
2018-09-13T06:44:39.489Z,19.78
2018-09-13T06:45:39.624Z,19.79
2018-09-13T06:46:39.761Z,19.75
2018-09-13T06:47:39.913Z,19.77
2018-09-13T06:48:40.118Z,19.71
2018-09-13T06:49:40.191Z,19.79
2018-09-13T06:50:40.335Z,19.79
2018-09-13T06:51:40.493Z,19.87
2018-09-13T06:52:40.639Z,19.78
2018-09-13T06:53:40.773Z,19.81
2018-09-13T06:54:40.917Z,19.92
2018-09-13T06:55:41.149Z,19.87
2018-09-13T06:56:41.162Z,19.81
2018-09-13T06:57:42.098Z,19.87
2018-09-13T06:58:41.490Z,19.86
2018-09-13T06:59:41.668Z,19.94
2018-09-13T07:00:41.797Z,19.92
2018-09-13T07:01:41.946Z,19.92
2018-09-13T07:02:42.089Z,19.96
2018-09-13T07:03:42.230Z,19.82
2018-09-13T07:04:42.479Z,19.79
2018-09-13T07:05:42.496Z,20.00
2018-09-13T07:06:42.636Z,19.87
2018-09-13T07:07:42.792Z,19.82
2018-09-13T07:08:42.919Z,19.89
2018-09-13T07:09:43.068Z,20.04
2018-09-13T07:10:43.203Z,19.90
2018-09-13T07:11:43.363Z,19.97
2018-09-13T07:12:43.501Z,20.04
2018-09-13T07:13:43.637Z,20.08
2018-09-13T07:14:43.780Z,20.04
2018-09-13T07:15:43.958Z,20.00
2018-09-13T07:16:44.095Z,19.96
2018-09-13T07:17:44.232Z,19.96
2018-09-13T07:18:44.369Z,19.99
2018-09-13T07:19:44.531Z,20.08
2018-09-13T07:20:44.678Z,20.08
2018-09-13T07:21:44.829Z,20.05
2018-09-13T07:22:44.968Z,20.02
2018-09-13T07:23:45.313Z,20.18
2018-09-13T07:24:45.248Z,20.25
2018-09-13T07:25:45.386Z,20.23
2018-09-13T07:26:45.532Z,20.19
2018-09-13T07:27:45.675Z,20.22
2018-09-13T07:28:45.815Z,20.27
2018-09-13T07:29:45.954Z,20.19
2018-09-13T07:30:46.112Z,20.18
2018-09-13T07:31:46.235Z,20.17
2018-09-13T07:32:46.375Z,20.18
2018-09-13T07:33:46.518Z,20.17
2018-09-13T07:34:46.666Z,20.19
2018-09-13T07:35:46.806Z,20.22
2018-09-13T07:36:46.978Z,20.29
2018-09-13T07:37:47.104Z,20.32
2018-09-13T07:38:47.245Z,20.34
2018-09-13T07:39:47.382Z,20.37
2018-09-13T07:40:47.531Z,20.41
2018-09-13T07:41:47.693Z,20.30
2018-09-13T07:42:47.825Z,20.44
2018-09-13T07:43:47.951Z,20.36
2018-09-13T07:44:48.094Z,20.37
2018-09-13T07:45:48.262Z,20.36
2018-09-13T07:46:48.491Z,20.41
2018-09-13T07:47:48.508Z,20.33
2018-09-13T07:48:48.647Z,20.42
2018-09-13T07:49:49.000Z,20.39
2018-09-13T07:50:49.033Z,20.41
2018-09-13T07:51:49.047Z,20.48
2018-09-13T07:52:49.187Z,20.44
2018-09-13T07:53:49.363Z,20.42
2018-09-13T07:54:49.497Z,20.48
2018-09-13T07:55:49.714Z,20.39
2018-09-13T07:56:49.777Z,20.37
2018-09-13T07:57:49.948Z,20.55
2018-09-13T07:58:50.088Z,20.48
2018-09-13T07:59:50.230Z,20.41
2018-09-13T08:00:50.375Z,20.39
2018-09-13T08:01:50.534Z,20.42
2018-09-13T08:02:50.686Z,20.36
2018-09-13T08:03:50.823Z,20.39
2018-09-13T08:04:50.959Z,20.46
2018-09-13T08:05:51.106Z,20.48
2018-09-13T08:06:51.244Z,20.50
2018-09-13T08:07:51.382Z,20.42
2018-09-13T08:08:51.525Z,20.50
2018-09-13T08:09:51.733Z,20.46
2018-09-13T08:10:51.803Z,20.50
2018-09-13T08:11:51.950Z,20.39
2018-09-13T08:12:52.083Z,20.30
2018-09-13T08:13:52.225Z,20.30
2018-09-13T08:14:52.370Z,20.39
2018-09-13T08:15:52.544Z,20.37
2018-09-13T08:16:52.647Z,20.34
2018-09-13T08:17:52.783Z,20.39
2018-09-13T08:18:52.925Z,20.42
2018-09-13T08:19:53.059Z,20.42
2018-09-13T08:20:53.204Z,20.42
2018-09-13T08:21:53.404Z,20.39
2018-09-13T08:22:53.490Z,20.44
2018-09-13T08:23:53.628Z,20.42
2018-09-13T08:24:53.765Z,20.36
2018-09-13T08:25:53.904Z,20.49
2018-09-13T08:26:54.051Z,20.37
2018-09-13T08:27:54.191Z,20.42
2018-09-13T08:28:54.332Z,20.46
2018-09-13T08:29:54.472Z,20.53
2018-09-13T08:30:54.617Z,20.49
2018-09-13T08:31:54.757Z,20.63
2018-09-13T08:32:54.894Z,20.46
2018-09-13T08:33:55.041Z,20.41
2018-09-13T08:34:55.285Z,20.49
2018-09-13T08:35:55.316Z,20.52
2018-09-13T08:36:55.461Z,20.42
2018-09-13T08:37:55.596Z,20.53
2018-09-13T08:38:55.786Z,20.50
2018-09-13T08:39:55.894Z,20.50
2018-09-13T08:40:56.021Z,20.53
2018-09-13T08:41:56.161Z,20.49
2018-09-13T08:42:56.320Z,20.52
2018-09-13T08:43:56.440Z,20.48
2018-09-13T08:44:56.583Z,20.50
2018-09-13T08:45:56.727Z,20.56
2018-09-13T08:46:57.675Z,20.52
2018-09-13T08:47:56.974Z,20.56
2018-09-13T08:48:57.114Z,20.53
2018-09-13T08:49:57.262Z,20.56
2018-09-13T08:50:57.403Z,20.56
2018-09-13T08:51:57.621Z,20.60
2018-09-13T08:52:57.683Z,20.64
2018-09-13T08:53:57.823Z,20.61
2018-09-13T08:54:58.021Z,20.61
2018-09-13T08:55:58.102Z,20.56
2018-09-13T08:56:58.243Z,20.61
2018-09-13T08:57:58.380Z,20.70
2018-09-13T08:58:58.525Z,20.70
2018-09-13T08:59:58.660Z,20.58
2018-09-13T09:00:58.801Z,20.61
2018-09-13T09:01:58.951Z,20.63
2018-09-13T09:02:59.092Z,20.71
2018-09-13T09:03:59.237Z,20.64
2018-09-13T09:04:59.373Z,20.65
2018-09-13T09:06:00.197Z,20.70
2018-09-13T09:06:59.600Z,20.68
2018-09-13T09:07:59.738Z,20.74
2018-09-13T09:08:59.877Z,20.65
2018-09-13T09:10:00.031Z,20.70
2018-09-13T09:11:00.169Z,20.70
2018-09-13T09:12:00.370Z,20.73
2018-09-13T09:13:00.446Z,20.75
2018-09-13T09:14:00.613Z,20.77
2018-09-13T09:15:00.748Z,20.80
2018-09-13T09:16:00.892Z,20.79
2018-09-13T09:17:01.028Z,20.77
2018-09-13T09:18:01.198Z,20.70
2018-09-13T09:19:01.337Z,20.53
2018-09-13T09:20:01.478Z,20.67
2018-09-13T09:21:01.621Z,20.73
2018-09-13T09:22:01.755Z,20.63
2018-09-13T09:23:01.937Z,20.65
2018-09-13T09:24:02.082Z,20.70
2018-09-13T09:25:02.211Z,20.61
2018-09-13T09:26:02.369Z,20.61
2018-09-13T09:27:02.515Z,20.64
2018-09-13T09:28:03.337Z,20.68
2018-09-13T09:29:02.903Z,20.67
2018-09-13T09:30:02.983Z,20.70
2018-09-13T09:31:03.122Z,20.64
2018-09-13T09:32:03.264Z,20.71
2018-09-13T09:33:03.445Z,20.55
2018-09-13T09:34:03.574Z,20.68
2018-09-13T09:35:03.784Z,20.68
2018-09-13T09:36:03.857Z,20.65
2018-09-13T09:37:04.007Z,20.68
2018-09-13T09:38:04.144Z,20.61
2018-09-13T09:39:04.280Z,20.63
2018-09-13T09:40:04.437Z,20.73
2018-09-13T09:41:04.579Z,20.63
2018-09-13T09:42:04.711Z,20.68
2018-09-13T09:43:04.851Z,20.65
2018-09-13T09:44:05.066Z,20.68
2018-09-13T09:45:05.151Z,20.74
2018-09-13T09:46:05.294Z,20.74
2018-09-13T09:47:05.457Z,20.70
2018-09-13T09:48:05.670Z,20.79
2018-09-13T09:49:05.713Z,20.82
2018-09-13T09:50:05.857Z,20.89
2018-09-13T09:51:06.016Z,20.79
2018-09-13T09:52:06.239Z,20.75
2018-09-13T09:53:06.289Z,20.90
2018-09-13T09:54:06.455Z,20.88
2018-09-13T09:55:06.592Z,20.92
2018-09-13T09:56:06.794Z,20.92
2018-09-13T09:57:06.895Z,20.83
2018-09-13T09:58:07.038Z,20.80
2018-09-13T09:59:07.177Z,20.85
2018-09-13T10:00:07.325Z,20.83
2018-09-13T10:01:07.481Z,20.90
2018-09-13T10:02:07.623Z,20.89
2018-09-13T10:03:07.831Z,20.95
2018-09-13T10:04:07.904Z,20.88
2018-09-13T10:05:08.061Z,20.83
2018-09-13T10:06:08.198Z,20.93
2018-09-13T10:07:08.344Z,20.95
2018-09-13T10:08:08.491Z,21.00
2018-09-13T10:09:08.721Z,20.93
2018-09-13T10:10:08.805Z,20.97
2018-09-13T10:11:08.941Z,21.10
2018-09-13T10:12:09.087Z,21.13
2018-09-13T10:13:09.292Z,21.19
2018-09-13T10:14:09.409Z,21.25
2018-09-13T10:15:09.631Z,21.25
2018-09-13T10:16:09.758Z,21.38
2018-09-13T10:17:09.857Z,21.32
2018-09-13T10:18:09.991Z,21.34
2018-09-13T10:19:10.132Z,21.43
2018-09-13T10:20:10.272Z,21.43
2018-09-13T10:21:10.422Z,21.26
2018-09-13T10:22:10.563Z,21.34
2018-09-13T10:23:10.707Z,21.35
2018-09-13T10:24:10.852Z,21.41
2018-09-13T10:25:11.037Z,21.43
2018-09-13T10:26:11.168Z,21.50
2018-09-13T10:27:11.313Z,21.43
2018-09-13T10:28:11.492Z,21.45
2018-09-13T10:29:11.633Z,21.47
2018-09-13T10:30:11.770Z,21.53
2018-09-13T10:31:11.916Z,21.43
2018-09-13T10:32:12.084Z,21.43
2018-09-13T10:33:12.220Z,21.51
2018-09-13T10:34:12.365Z,21.55
2018-09-13T10:35:12.539Z,21.50
2018-09-13T10:36:12.678Z,21.63
2018-09-13T10:37:12.819Z,21.73
2018-09-13T10:38:12.964Z,21.69
2018-09-13T10:39:13.105Z,21.75
2018-09-13T10:40:14.127Z,21.71
2018-09-13T10:42:45.414Z,21.80
2018-09-13T10:43:45.588Z,21.77
2018-09-13T10:44:45.728Z,21.84
2018-09-13T10:45:45.867Z,21.78
2018-09-13T10:46:46.027Z,21.77
2018-09-13T10:47:50.920Z,21.77
2018-09-13T10:48:46.318Z,21.82
2018-09-13T10:49:46.468Z,21.81
2018-09-13T10:50:46.617Z,21.73
2018-09-13T10:51:46.755Z,21.71
2018-09-13T10:52:46.901Z,21.60
2018-09-13T10:53:47.066Z,21.60
2018-09-13T10:54:47.203Z,21.66
2018-09-13T10:55:47.377Z,21.66
2018-09-13T10:56:47.487Z,21.71
2018-09-13T10:57:47.654Z,21.71
2018-09-13T10:58:47.782Z,21.73
2018-09-13T10:59:47.925Z,21.71
2018-09-13T11:00:48.068Z,21.65
2018-09-13T11:01:48.220Z,21.73
2018-09-13T11:02:48.362Z,21.60
2018-09-13T11:03:48.497Z,21.66
2018-09-13T11:04:48.642Z,21.67
2018-09-13T11:05:48.826Z,21.50
2018-09-13T11:06:48.978Z,21.47
2018-09-13T11:07:49.115Z,21.45
2018-09-13T11:08:49.256Z,21.53
2018-09-13T11:09:49.425Z,21.53
2018-09-13T11:10:49.717Z,21.48
2018-09-13T11:11:49.665Z,21.44
2018-09-13T11:12:49.813Z,21.55
2018-09-13T11:13:49.980Z,21.59
2018-09-13T11:14:50.125Z,21.51
2018-09-13T11:15:50.257Z,21.44
2018-09-13T11:16:50.403Z,21.50
2018-09-13T11:17:50.583Z,21.45
2018-09-13T11:18:50.832Z,21.53
2018-09-13T11:19:50.846Z,21.59
2018-09-13T11:20:50.988Z,21.53
2018-09-13T11:21:51.177Z,21.50
2018-09-13T11:22:51.280Z,21.45
2018-09-13T11:23:51.422Z,21.47
2018-09-13T11:24:51.577Z,21.53
2018-09-13T11:25:51.712Z,21.53
2018-09-13T11:26:51.889Z,21.59
2018-09-13T11:27:52.042Z,21.60
2018-09-13T11:28:52.184Z,21.60
2018-09-13T11:29:52.324Z,21.59
2018-09-13T11:30:52.465Z,21.60
2018-09-13T11:31:52.604Z,21.62
2018-09-13T11:32:52.745Z,21.59
2018-09-13T11:33:52.886Z,21.50
2018-09-13T11:34:53.028Z,21.47
2018-09-13T11:35:53.171Z,21.44
2018-09-13T11:36:53.317Z,21.47
2018-09-13T11:37:53.460Z,21.45
2018-09-13T11:38:54.479Z,21.47
2018-09-13T11:41:25.543Z,21.50
2018-09-13T11:42:25.680Z,21.63
2018-09-13T11:43:25.829Z,21.58
2018-09-13T11:44:25.972Z,21.58
2018-09-13T11:45:26.113Z,21.63
2018-09-13T11:46:26.252Z,21.58
2018-09-13T11:47:26.409Z,21.56
2018-09-13T11:48:26.554Z,21.48
2018-09-13T11:49:26.695Z,21.53
2018-09-13T11:50:26.833Z,21.63
2018-09-13T11:51:27.007Z,21.60
2018-09-13T11:52:27.143Z,21.65
2018-09-13T11:53:27.287Z,21.59
2018-09-13T11:54:27.703Z,21.55
2018-09-13T11:55:27.585Z,21.48
2018-09-13T11:56:27.716Z,21.58
2018-09-13T11:57:27.870Z,21.55
2018-09-13T11:58:27.996Z,21.65
2018-09-13T11:59:28.146Z,21.63
2018-09-13T12:00:28.387Z,21.45
2018-09-13T12:01:29.302Z,21.48
2018-09-13T12:02:28.553Z,21.55
2018-09-13T12:03:28.685Z,21.47
2018-09-13T12:04:28.836Z,21.56
2018-09-13T12:05:28.976Z,21.45
2018-09-13T12:06:29.164Z,21.48
2018-09-13T12:07:29.296Z,21.50
2018-09-13T12:08:29.470Z,21.48
2018-09-13T12:09:29.673Z,21.53
2018-09-13T12:10:29.739Z,21.47
2018-09-13T12:11:29.874Z,21.58
2018-09-13T12:12:30.066Z,21.53
2018-09-13T12:13:30.144Z,21.65
2018-09-13T12:14:30.279Z,21.53
2018-09-13T12:15:30.425Z,21.62
2018-09-13T12:16:30.590Z,21.62
2018-09-13T12:17:30.750Z,21.74
2018-09-13T12:18:30.962Z,21.66
2018-09-13T12:19:31.028Z,21.75
2018-09-13T12:20:31.188Z,21.74
2018-09-13T12:21:31.328Z,21.82
2018-09-13T12:22:31.500Z,21.81
2018-09-13T12:23:31.636Z,21.82
2018-09-13T12:24:31.789Z,21.75
2018-09-13T12:25:31.933Z,21.85
2018-09-13T12:26:32.080Z,21.88
2018-09-13T12:27:32.289Z,21.93
2018-09-13T12:28:32.376Z,21.84
2018-09-13T12:29:32.520Z,21.94
2018-09-13T12:30:32.664Z,21.96
2018-09-13T12:31:32.812Z,21.96
2018-09-13T12:32:32.995Z,21.93
2018-09-13T12:33:33.107Z,22.00
2018-09-13T12:34:33.246Z,22.00
2018-09-13T12:35:33.397Z,22.04
2018-09-13T12:36:33.541Z,21.96
2018-09-13T12:37:33.678Z,22.00
2018-09-13T12:38:33.819Z,22.06
2018-09-13T12:39:33.958Z,21.96
2018-09-13T12:40:34.107Z,22.04
2018-09-13T12:41:34.249Z,21.97
2018-09-13T12:42:34.400Z,22.01
2018-09-13T12:43:34.539Z,22.01
2018-09-13T12:44:34.688Z,22.06
2018-09-13T12:45:34.826Z,22.11
2018-09-13T12:46:34.967Z,22.03
2018-09-13T12:47:35.127Z,22.07
2018-09-13T12:48:35.279Z,22.04
2018-09-13T12:49:35.420Z,22.06
2018-09-13T12:50:36.473Z,22.01
2018-09-13T12:51:35.789Z,22.03
2018-09-13T12:52:35.933Z,22.00
2018-09-13T12:53:36.099Z,21.97
2018-09-13T12:54:36.318Z,21.88
2018-09-13T12:55:36.337Z,21.98
2018-09-13T12:56:36.482Z,21.98
2018-09-13T12:57:36.625Z,22.04
2018-09-13T12:58:36.764Z,22.11